createdAt,value
2018-09-11T00:00:38.571Z,16.98
2018-09-11T00:01:38.561Z,16.96
2018-09-11T00:02:38.563Z,16.99
2018-09-11T00:03:38.564Z,16.98
2018-09-11T00:04:38.527Z,17.03
2018-09-11T00:05:38.520Z,16.96
2018-09-11T00:06:38.506Z,16.92
2018-09-11T00:07:38.493Z,16.90
2018-09-11T00:08:38.521Z,16.91
2018-09-11T00:09:38.470Z,16.91
2018-09-11T00:10:38.460Z,16.85
2018-09-11T00:11:38.450Z,16.85
2018-09-11T00:12:38.439Z,16.80
2018-09-11T00:13:38.451Z,16.87
2018-09-11T00:14:38.434Z,16.85
2018-09-11T00:15:38.409Z,16.77
2018-09-11T00:16:38.392Z,16.73
2018-09-11T00:17:38.396Z,16.77
2018-09-11T00:18:38.394Z,16.69
2018-09-11T00:19:38.359Z,16.65
2018-09-11T00:20:38.378Z,16.65
2018-09-11T00:21:38.342Z,16.62
2018-09-11T00:22:38.326Z,16.72
2018-09-11T00:23:38.341Z,16.63
2018-09-11T00:24:38.303Z,16.65
2018-09-11T00:25:38.306Z,16.66
2018-09-11T00:26:38.281Z,16.63
2018-09-11T00:27:38.275Z,16.62
2018-09-11T00:28:38.283Z,16.60
2018-09-11T00:29:38.248Z,16.54
2018-09-11T00:30:38.239Z,16.55
2018-09-11T00:31:38.251Z,16.51
2018-09-11T00:32:38.214Z,16.60
2018-09-11T00:33:38.225Z,16.57
2018-09-11T00:34:38.196Z,16.54
2018-09-11T00:35:38.181Z,16.51
2018-09-11T00:36:38.172Z,16.52
2018-09-11T00:37:38.186Z,16.59
2018-09-11T00:38:38.172Z,16.41
2018-09-11T00:39:38.137Z,16.41
2018-09-11T00:40:38.124Z,16.41
2018-09-11T00:41:38.114Z,16.41
2018-09-11T00:42:38.104Z,16.44
2018-09-11T00:43:38.129Z,16.41
2018-09-11T00:44:38.080Z,16.33
2018-09-11T00:45:38.068Z,16.17
2018-09-11T00:46:38.066Z,16.18
2018-09-11T00:47:38.045Z,16.22
2018-09-11T00:48:38.059Z,16.13
2018-09-11T00:49:38.045Z,16.17
2018-09-11T00:50:38.013Z,16.11
2018-09-11T00:51:38.000Z,16.13
2018-09-11T00:52:37.991Z,16.11
2018-09-11T00:53:38.004Z,16.14
2018-09-11T00:54:37.968Z,16.04
2018-09-11T00:55:37.975Z,16.07
2018-09-11T00:56:37.948Z,16.10
2018-09-11T00:57:37.935Z,16.10
2018-09-11T00:58:37.948Z,16.01
2018-09-11T00:59:37.912Z,16.06
2018-09-11T01:00:37.901Z,16.08
2018-09-11T01:01:37.912Z,16.13
2018-09-11T01:02:37.878Z,16.08
2018-09-11T01:03:37.892Z,16.13
2018-09-11T01:04:37.857Z,16.11
2018-09-11T01:05:37.845Z,16.14
2018-09-11T01:06:37.837Z,16.17
2018-09-11T01:07:37.842Z,16.32
2018-09-11T01:08:37.812Z,16.17
2018-09-11T01:09:37.824Z,16.22
2018-09-11T01:10:37.789Z,16.18
2018-09-11T01:11:37.777Z,16.13
2018-09-11T01:12:37.768Z,16.16
2018-09-11T01:13:37.794Z,16.17
2018-09-11T01:14:37.745Z,16.18
2018-09-11T01:15:37.739Z,16.27
2018-09-11T01:16:37.724Z,16.33
2018-09-11T01:17:37.709Z,16.18
2018-09-11T01:18:37.701Z,16.23
2018-09-11T01:19:37.728Z,16.22
2018-09-11T01:20:37.680Z,16.22
2018-09-11T01:21:37.665Z,16.23
2018-09-11T01:22:37.655Z,16.17
2018-09-11T01:23:37.644Z,16.17
2018-09-11T01:24:37.658Z,16.14
2018-09-11T01:25:37.636Z,16.10
2018-09-11T01:26:37.610Z,16.07
2018-09-11T01:27:37.599Z,16.03
2018-09-11T01:28:37.591Z,16.06
2018-09-11T01:29:37.600Z,15.98
2018-09-11T01:30:37.564Z,16.10
2018-09-11T01:31:37.564Z,16.10
2018-09-11T01:32:37.544Z,16.13
2018-09-11T01:33:37.533Z,16.14
2018-09-11T01:34:37.548Z,16.11
2018-09-11T01:35:37.509Z,16.07
2018-09-11T01:36:37.500Z,16.08
2018-09-11T01:37:37.499Z,16.14
2018-09-11T01:38:37.479Z,16.13
2018-09-11T01:39:37.488Z,16.25
2018-09-11T01:40:37.454Z,16.25
2018-09-11T01:41:37.443Z,16.17
2018-09-11T01:42:37.442Z,16.26
2018-09-11T01:43:37.420Z,16.18
2018-09-11T01:44:37.432Z,16.25
2018-09-11T01:45:37.399Z,16.22
2018-09-11T01:46:37.388Z,16.14
2018-09-11T01:47:37.397Z,16.13
2018-09-11T01:48:37.364Z,16.29
2018-09-11T01:49:37.376Z,16.17
2018-09-11T01:50:37.343Z,16.13
2018-09-11T01:51:37.332Z,16.16
2018-09-11T01:52:37.319Z,16.11
2018-09-11T01:53:37.330Z,16.04
2018-09-11T01:54:37.322Z,16.07
2018-09-11T01:55:37.285Z,16.10
2018-09-11T01:56:37.275Z,16.13
2018-09-11T01:57:37.264Z,16.11
2018-09-11T01:58:37.253Z,16.10
2018-09-11T01:59:37.286Z,16.01
2018-09-11T02:00:37.233Z,15.99
2018-09-11T02:01:37.222Z,16.01
2018-09-11T02:02:37.207Z,16.01
2018-09-11T02:03:37.197Z,16.04
2018-09-11T02:04:37.210Z,15.95
2018-09-11T02:05:37.195Z,15.95
2018-09-11T02:06:37.166Z,15.93
2018-09-11T02:07:37.151Z,15.85
2018-09-11T02:08:37.141Z,15.86
2018-09-11T02:09:37.154Z,15.89
2018-09-11T02:10:37.125Z,15.81
2018-09-11T02:11:37.122Z,15.84
2018-09-11T02:12:37.096Z,15.70
2018-09-11T02:13:37.085Z,15.85
2018-09-11T02:14:37.101Z,15.81
2018-09-11T02:15:37.064Z,15.77
2018-09-11T02:16:37.054Z,15.81
2018-09-11T02:17:37.058Z,15.81
2018-09-11T02:18:37.031Z,15.84
2018-09-11T02:19:37.044Z,15.81
2018-09-11T02:20:37.007Z,15.80
2018-09-11T02:21:36.995Z,15.85
2018-09-11T02:22:36.984Z,15.77
2018-09-11T02:23:36.988Z,15.73
2018-09-11T02:24:36.986Z,15.73
2018-09-11T02:25:36.950Z,15.81
2018-09-11T02:26:36.940Z,15.81
2018-09-11T02:27:36.930Z,15.81
2018-09-11T02:28:36.917Z,15.84
2018-09-11T02:29:36.944Z,15.71
2018-09-11T02:30:36.896Z,15.77
2018-09-11T02:31:36.884Z,15.73
2018-09-11T02:32:36.871Z,15.74
2018-09-11T02:33:36.861Z,15.77
2018-09-11T02:34:36.875Z,15.73
2018-09-11T02:35:36.882Z,15.62
2018-09-11T02:36:36.830Z,15.70
2018-09-11T02:37:36.815Z,15.59
2018-09-11T02:38:36.804Z,15.55
2018-09-11T02:39:36.819Z,15.58
2018-09-11T02:40:36.782Z,15.59
2018-09-11T02:41:36.789Z,15.55
2018-09-11T02:42:36.763Z,15.58
2018-09-11T02:43:36.756Z,15.60
2018-09-11T02:44:36.766Z,15.58
2018-09-11T02:45:36.728Z,15.56
2018-09-11T02:46:36.714Z,15.53
2018-09-11T02:47:36.718Z,15.56
2018-09-11T02:48:36.693Z,15.55
2018-09-11T02:49:36.704Z,15.52
2018-09-11T02:50:36.671Z,15.52
2018-09-11T02:51:36.659Z,15.53
2018-09-11T02:52:36.648Z,15.51
2018-09-11T02:53:36.663Z,15.49
2018-09-11T02:54:36.629Z,15.51
2018-09-11T02:55:36.639Z,15.56
2018-09-11T02:56:36.604Z,15.48
2018-09-11T02:57:36.591Z,15.48
2018-09-11T02:58:36.580Z,15.44
2018-09-11T02:59:36.593Z,15.53
2018-09-11T03:00:36.587Z,15.49
2018-09-11T03:01:36.549Z,15.40
2018-09-11T03:02:36.537Z,15.30
2018-09-11T03:03:36.526Z,15.31
2018-09-11T03:04:36.515Z,15.33
2018-09-11T03:05:36.545Z,15.31
2018-09-11T03:06:36.492Z,15.31
2018-09-11T03:07:36.480Z,15.25
2018-09-11T03:08:36.469Z,15.30
2018-09-11T03:09:36.461Z,15.31
2018-09-11T03:10:36.469Z,15.28
2018-09-11T03:11:36.467Z,15.31
2018-09-11T03:12:36.426Z,15.37
2018-09-11T03:13:36.419Z,15.35
2018-09-11T03:14:36.404Z,15.31
2018-09-11T03:15:36.415Z,15.33
2018-09-11T03:16:36.381Z,15.30
2018-09-11T03:17:36.394Z,15.31
2018-09-11T03:18:36.361Z,15.33
2018-09-11T03:19:36.345Z,15.35
2018-09-11T03:20:36.363Z,15.34
2018-09-11T03:21:36.327Z,15.25
2018-09-11T03:22:36.312Z,15.28
2018-09-11T03:23:36.316Z,15.34
2018-09-11T03:24:36.298Z,15.33
2018-09-11T03:25:36.302Z,15.33
2018-09-11T03:26:36.268Z,15.25
2018-09-11T03:27:36.257Z,15.27
2018-09-11T03:28:36.249Z,15.23
2018-09-11T03:29:36.248Z,15.25
2018-09-11T03:30:36.248Z,15.23
2018-09-11T03:31:36.213Z,15.19
2018-09-11T03:32:36.201Z,15.23
2018-09-11T03:33:36.191Z,15.23
2018-09-11T03:34:36.178Z,15.20
2018-09-11T03:35:36.209Z,15.23
2018-09-11T03:36:36.159Z,15.23
2018-09-11T03:37:36.146Z,15.20
2018-09-11T03:38:36.133Z,15.28
2018-09-11T03:39:36.125Z,15.35
2018-09-11T03:40:36.134Z,15.33
2018-09-11T03:41:36.124Z,15.34
2018-09-11T03:42:36.092Z,15.33
2018-09-11T03:43:36.079Z,15.31
2018-09-11T03:44:36.068Z,15.35
2018-09-11T03:45:36.085Z,15.33
2018-09-11T03:46:36.045Z,15.31
2018-09-11T03:47:36.053Z,15.31
2018-09-11T03:48:36.022Z,15.27
2018-09-11T03:49:36.024Z,15.23
2018-09-11T03:50:36.024Z,15.23
2018-09-11T03:51:35.987Z,15.23
2018-09-11T03:52:35.977Z,15.19
2018-09-11T03:53:35.979Z,15.22
2018-09-11T03:54:35.958Z,15.22
2018-09-11T03:55:35.968Z,15.19
2018-09-11T03:56:35.933Z,15.25
2018-09-11T03:57:35.923Z,15.20
2018-09-11T03:58:35.914Z,15.23
2018-09-11T03:59:35.917Z,15.18
2018-09-11T04:00:35.913Z,15.25
2018-09-11T04:01:35.878Z,15.12
2018-09-11T04:02:35.864Z,15.13
2018-09-11T04:03:35.856Z,15.13
2018-09-11T04:04:35.850Z,15.05
2018-09-11T04:05:36.021Z,15.07
2018-09-11T04:06:35.822Z,15.09
2018-09-11T04:07:35.812Z,14.98
2018-09-11T04:08:35.801Z,15.04
2018-09-11T04:09:35.787Z,14.98
2018-09-11T04:10:35.801Z,14.93
2018-09-11T04:11:35.780Z,14.94
2018-09-11T04:12:35.755Z,15.07
2018-09-11T04:13:35.743Z,15.00
2018-09-11T04:14:35.732Z,15.01
2018-09-11T04:15:35.747Z,14.98
2018-09-11T04:16:35.708Z,15.09
2018-09-11T04:17:35.715Z,15.07
2018-09-11T04:18:35.687Z,15.05
2018-09-11T04:19:35.676Z,15.04
2018-09-11T04:20:35.691Z,14.98
2018-09-11T04:21:35.653Z,14.93
2018-09-11T04:22:35.644Z,14.93
2018-09-11T04:23:35.645Z,14.94
2018-09-11T04:24:35.622Z,14.93
2018-09-11T04:25:35.666Z,14.93
2018-09-11T04:26:35.601Z,14.94
2018-09-11T04:27:35.588Z,14.91
2018-09-11T04:28:35.574Z,14.94
2018-09-11T04:29:35.576Z,14.93
2018-09-11T04:30:35.578Z,14.97
2018-09-11T04:31:35.543Z,14.95
2018-09-11T04:32:35.531Z,14.91
2018-09-11T04:33:35.524Z,14.95
2018-09-11T04:34:35.508Z,14.93
2018-09-11T04:35:35.544Z,14.94
2018-09-11T04:36:35.490Z,14.94
2018-09-11T04:37:35.475Z,14.97
2018-09-11T04:38:35.465Z,14.95
2018-09-11T04:39:35.452Z,14.97
2018-09-11T04:40:35.455Z,14.95
2018-09-11T04:41:35.453Z,14.97
2018-09-11T04:42:35.420Z,15.00
2018-09-11T04:43:35.415Z,14.98
2018-09-11T04:44:35.397Z,15.04
2018-09-11T04:45:35.389Z,15.04
2018-09-11T04:46:35.413Z,14.95
2018-09-11T04:47:35.363Z,15.01
2018-09-11T04:48:35.355Z,14.93
2018-09-11T04:49:35.340Z,14.94
2018-09-11T04:50:35.333Z,14.95
2018-09-11T04:51:35.342Z,14.91
2018-09-11T04:52:35.345Z,14.98
2018-09-11T04:53:35.295Z,14.98
2018-09-11T04:54:35.316Z,14.93
2018-09-11T04:55:35.277Z,15.04
2018-09-11T04:56:35.308Z,15.00
2018-09-11T04:57:35.250Z,14.95
2018-09-11T04:58:35.317Z,14.95
2018-09-11T04:59:35.230Z,15.00
2018-09-11T05:00:35.226Z,14.91
2018-09-11T05:01:35.231Z,14.94
2018-09-11T05:02:35.219Z,15.04
2018-09-11T05:03:35.186Z,15.03
2018-09-11T05:04:35.219Z,15.09
2018-09-11T05:05:35.163Z,15.15
2018-09-11T05:06:35.201Z,15.03
2018-09-11T05:07:35.140Z,15.13
2018-09-11T05:08:35.129Z,15.16
2018-09-11T05:09:35.118Z,15.15
2018-09-11T05:10:35.119Z,15.18
2018-09-11T05:11:35.118Z,15.19
2018-09-11T05:12:35.084Z,15.25
2018-09-11T05:13:35.073Z,15.23
2018-09-11T05:14:35.060Z,15.19
2018-09-11T05:15:35.050Z,15.19
2018-09-11T05:16:35.079Z,15.20
2018-09-11T05:17:35.029Z,15.20
2018-09-11T05:18:35.018Z,15.22
2018-09-11T05:19:35.006Z,15.20
2018-09-11T05:20:34.994Z,15.15
2018-09-11T05:21:35.007Z,15.16
2018-09-11T05:22:34.985Z,15.19
2018-09-11T05:23:34.962Z,15.20
2018-09-11T05:24:34.952Z,15.18
2018-09-11T05:25:34.945Z,15.23
2018-09-11T05:26:34.950Z,15.25
2018-09-11T05:27:35.074Z,15.27
2018-09-11T05:28:34.917Z,15.23
2018-09-11T05:29:34.893Z,15.28
2018-09-11T05:30:34.882Z,15.35
2018-09-11T05:31:34.895Z,15.31
2018-09-11T05:32:34.859Z,15.38
2018-09-11T05:33:34.849Z,15.40
2018-09-11T05:34:34.857Z,15.41
2018-09-11T05:35:34.829Z,15.41
2018-09-11T05:36:34.840Z,15.40
2018-09-11T05:37:34.805Z,15.43
2018-09-11T05:38:34.796Z,15.43
2018-09-11T05:39:34.786Z,15.40
2018-09-11T05:40:34.786Z,15.40
2018-09-11T05:41:34.960Z,15.43
2018-09-11T05:42:34.814Z,15.43
2018-09-11T05:43:34.737Z,15.46
2018-09-11T05:44:34.724Z,15.44
2018-09-11T05:45:34.718Z,15.51
2018-09-11T05:46:34.726Z,15.51
2018-09-11T05:47:34.713Z,15.53
2018-09-11T05:48:34.708Z,15.53
2018-09-11T05:49:34.669Z,15.55
2018-09-11T05:50:34.672Z,15.58
2018-09-11T05:51:34.670Z,15.55
2018-09-11T05:52:34.636Z,15.58
2018-09-11T05:53:34.637Z,15.68
2018-09-11T05:54:34.612Z,15.66
2018-09-11T05:55:34.602Z,15.73
2018-09-11T05:56:34.614Z,15.73
2018-09-11T05:57:34.581Z,15.62
2018-09-11T05:58:34.595Z,15.70
2018-09-11T05:59:34.557Z,15.70
2018-09-11T06:00:34.546Z,15.68
2018-09-11T06:01:34.556Z,15.71
2018-09-11T06:02:34.524Z,15.70
2018-09-11T06:03:34.515Z,15.70
2018-09-11T06:04:34.519Z,15.73
2018-09-11T06:05:34.511Z,15.71
2018-09-11T06:06:34.500Z,15.77
2018-09-11T06:07:34.466Z,15.71
2018-09-11T06:08:34.460Z,15.74
2018-09-11T06:09:34.451Z,15.71
2018-09-11T06:10:34.446Z,15.74
2018-09-11T06:11:34.446Z,15.73
2018-09-11T06:12:34.414Z,15.84
2018-09-11T06:13:34.403Z,15.81
2018-09-11T06:14:34.390Z,15.84
2018-09-11T06:15:34.377Z,15.81
2018-09-11T06:16:34.397Z,15.86
2018-09-11T06:17:34.355Z,15.77
2018-09-11T06:18:34.345Z,15.84
2018-09-11T06:19:34.336Z,15.86
2018-09-11T06:20:34.334Z,15.77
2018-09-11T06:21:34.336Z,15.89
2018-09-11T06:22:34.311Z,15.84
2018-09-11T06:23:34.288Z,15.86
2018-09-11T06:24:34.281Z,15.73
2018-09-11T06:25:34.273Z,15.86
2018-09-11T06:26:34.259Z,15.89
2018-09-11T06:27:34.267Z,15.80
2018-09-11T06:28:34.255Z,15.78
2018-09-11T06:29:34.266Z,15.84
2018-09-11T06:30:34.216Z,15.85
2018-09-11T06:31:34.217Z,15.77
2018-09-11T06:32:34.210Z,15.93
2018-09-11T06:33:34.180Z,15.85
2018-09-11T06:34:34.183Z,15.93
2018-09-11T06:35:34.188Z,15.84
2018-09-11T06:36:34.144Z,15.86
2018-09-11T06:37:34.172Z,15.78
2018-09-11T06:38:34.123Z,15.84
2018-09-11T06:39:34.114Z,15.89
2018-09-11T06:40:34.098Z,15.93
2018-09-11T06:41:34.090Z,15.86
2018-09-11T06:42:34.125Z,15.80
2018-09-11T06:43:34.064Z,15.70
2018-09-11T06:44:34.119Z,15.86
2018-09-11T06:45:34.042Z,15.76
2018-09-11T06:46:34.044Z,15.93
2018-09-11T06:47:34.044Z,15.85
2018-09-11T06:48:34.010Z,15.85
2018-09-11T06:49:34.043Z,15.89
2018-09-11T06:50:33.989Z,15.99
2018-09-11T06:51:34.054Z,16.03
2018-09-11T06:52:33.993Z,15.98
2018-09-11T06:53:33.956Z,15.98
2018-09-11T06:54:33.962Z,15.96
2018-09-11T06:55:33.956Z,15.98
2018-09-11T06:56:33.922Z,15.99
2018-09-11T06:57:33.930Z,16.13
2018-09-11T06:58:33.916Z,16.13
2018-09-11T06:59:34.450Z,16.18
2018-09-11T07:00:33.889Z,16.22
2018-09-11T07:01:33.866Z,16.36
2018-09-11T07:02:33.910Z,16.40
2018-09-11T07:03:33.920Z,16.40
2018-09-11T07:04:33.830Z,16.42
2018-09-11T07:05:33.862Z,16.52
2018-09-11T07:06:33.824Z,16.57
2018-09-11T07:07:33.820Z,16.59
2018-09-11T07:08:33.794Z,16.60
2018-09-11T07:09:33.787Z,16.72
2018-09-11T07:10:33.764Z,16.73
2018-09-11T07:11:33.751Z,16.73
2018-09-11T07:12:33.764Z,16.80
2018-09-11T07:13:33.728Z,16.87
2018-09-11T07:14:33.740Z,16.91
2018-09-11T07:15:33.722Z,16.91
2018-09-11T07:16:33.698Z,17.00
2018-09-11T07:17:33.711Z,17.03
2018-09-11T07:18:33.674Z,17.07
2018-09-11T07:19:33.718Z,17.09
2018-09-11T07:20:33.650Z,17.14
2018-09-11T07:21:33.647Z,17.15
2018-09-11T07:22:33.679Z,17.21
2018-09-11T07:23:33.643Z,17.28
2018-09-11T07:24:33.607Z,17.30
2018-09-11T07:25:33.598Z,17.38
2018-09-11T07:26:33.597Z,17.46
2018-09-11T07:27:33.599Z,17.49
2018-09-11T07:28:33.562Z,17.49
2018-09-11T07:29:33.587Z,17.54
2018-09-11T07:30:33.539Z,17.66
2018-09-11T07:31:33.529Z,17.65
2018-09-11T07:32:33.591Z,17.66
2018-09-11T07:33:33.505Z,17.68
2018-09-11T07:34:33.505Z,17.79
2018-09-11T07:35:33.484Z,17.74
2018-09-11T07:36:33.471Z,17.74
2018-09-11T07:37:33.484Z,17.80
2018-09-11T07:38:33.451Z,17.87
2018-09-11T07:39:33.444Z,17.92
2018-09-11T07:40:33.428Z,17.92
2018-09-11T07:41:33.418Z,17.98
2018-09-11T07:42:33.429Z,18.10
2018-09-11T07:43:33.395Z,18.09
2018-09-11T07:44:33.384Z,18.10
2018-09-11T07:45:33.425Z,18.20
2018-09-11T07:46:33.362Z,18.20
2018-09-11T07:47:33.406Z,18.20
2018-09-11T07:48:33.341Z,18.25
2018-09-11T07:49:33.328Z,18.34
2018-09-11T07:50:33.315Z,18.39
2018-09-11T07:51:33.308Z,18.44
2018-09-11T07:52:33.422Z,18.46
2018-09-11T07:53:33.287Z,18.44
2018-09-11T07:54:33.271Z,18.51
2018-09-11T07:55:33.261Z,18.56
2018-09-11T07:56:33.250Z,18.57
2018-09-11T07:57:33.304Z,18.57
2018-09-11T07:58:33.237Z,18.60
2018-09-11T07:59:33.217Z,18.69
2018-09-11T08:00:33.206Z,18.71
2018-09-11T08:01:33.212Z,18.82
2018-09-11T08:02:33.188Z,18.76
2018-09-11T08:03:33.198Z,18.83
2018-09-11T08:04:33.163Z,18.83
2018-09-11T08:05:33.204Z,18.91
2018-09-11T08:06:33.140Z,18.83
2018-09-11T08:07:33.166Z,18.93
2018-09-11T08:08:33.141Z,18.89
2018-09-11T08:09:33.143Z,18.89
2018-09-11T08:10:33.098Z,18.93
2018-09-11T08:11:33.096Z,18.93
2018-09-11T08:12:33.083Z,18.94
2018-09-11T08:13:33.092Z,18.99
2018-09-11T08:14:33.051Z,19.06
2018-09-11T08:15:33.157Z,19.01
2018-09-11T08:16:33.086Z,19.05
2018-09-11T08:17:33.018Z,19.10
2018-09-11T08:18:33.121Z,19.06
2018-09-11T08:19:33.047Z,19.05
2018-09-11T08:20:32.987Z,19.16
2018-09-11T08:21:32.982Z,19.12
2018-09-11T08:22:32.965Z,19.21
2018-09-11T08:23:32.975Z,19.21
2018-09-11T08:24:32.939Z,19.12
2018-09-11T08:25:32.980Z,19.23
2018-09-11T08:26:32.930Z,19.27
2018-09-11T08:27:32.904Z,19.27
2018-09-11T08:28:32.921Z,19.24
2018-09-11T08:29:32.886Z,19.28
2018-09-11T08:30:32.882Z,19.35
2018-09-11T08:31:32.859Z,19.30
2018-09-11T08:32:32.850Z,19.25
2018-09-11T08:33:32.863Z,19.28
2018-09-11T08:34:32.839Z,19.38
2018-09-11T08:35:32.835Z,19.34
2018-09-11T08:36:32.851Z,19.47
2018-09-11T08:37:32.818Z,19.42
2018-09-11T08:38:32.810Z,19.46
2018-09-11T08:39:32.794Z,19.50
2018-09-11T08:40:32.760Z,19.60
2018-09-11T08:41:32.757Z,19.60
2018-09-11T08:42:32.742Z,19.58
2018-09-11T08:43:32.769Z,19.58
2018-09-11T08:44:32.716Z,19.60
2018-09-11T08:45:32.741Z,19.70
2018-09-11T08:46:32.801Z,19.76
2018-09-11T08:47:32.693Z,19.82
2018-09-11T08:48:32.700Z,19.85
2018-09-11T08:49:32.684Z,19.90
2018-09-11T08:50:32.655Z,19.89
2018-09-11T08:51:32.645Z,19.82
2018-09-11T08:52:32.692Z,19.90
2018-09-11T08:53:32.976Z,19.97
2018-09-11T08:54:32.604Z,19.94
2018-09-11T08:55:32.593Z,19.97
2018-09-11T08:56:32.585Z,19.95
2018-09-11T08:57:32.573Z,20.04
2018-09-11T08:58:32.752Z,20.05
2018-09-11T08:59:32.592Z,20.10
2018-09-11T09:00:32.586Z,20.15
2018-09-11T09:01:32.553Z,20.13
2018-09-11T09:02:32.535Z,20.16
2018-09-11T09:03:32.527Z,20.16
2018-09-11T09:04:32.496Z,20.22
2018-09-11T09:05:32.483Z,20.23
2018-09-11T09:06:32.476Z,20.26
2018-09-11T09:07:32.479Z,20.31
2018-09-11T09:08:32.472Z,20.30
2018-09-11T09:09:32.438Z,20.34
2018-09-11T09:10:32.427Z,20.40
2018-09-11T09:11:32.416Z,20.41
2018-09-11T09:12:32.580Z,20.42
2018-09-11T09:13:32.421Z,20.41
2018-09-11T09:14:32.386Z,20.51
2018-09-11T09:15:32.390Z,20.58
2018-09-11T09:16:32.360Z,20.66
2018-09-11T09:17:32.349Z,20.57
2018-09-11T09:18:32.361Z,20.71
2018-09-11T09:19:32.345Z,20.79
2018-09-11T09:20:32.315Z,20.72
2018-09-11T09:21:32.303Z,20.73
2018-09-11T09:22:32.293Z,20.76
2018-09-11T09:23:32.310Z,20.79
2018-09-11T09:24:32.269Z,20.94
2018-09-11T09:25:32.278Z,20.93
2018-09-11T09:26:32.248Z,21.06
2018-09-11T09:27:32.293Z,21.01
2018-09-11T09:28:32.248Z,21.08
2018-09-11T09:29:32.217Z,21.12
2018-09-11T09:30:32.274Z,21.19
2018-09-11T09:31:32.219Z,21.12
2018-09-11T09:32:32.181Z,21.09
2018-09-11T09:33:32.210Z,21.19
2018-09-11T09:34:32.161Z,21.08
2018-09-11T09:35:32.152Z,21.21
2018-09-11T09:36:32.288Z,21.19
2018-09-11T09:37:32.129Z,21.27
2018-09-11T09:38:32.138Z,21.21
2018-09-11T09:39:32.127Z,21.26
2018-09-11T09:40:32.092Z,21.21
2018-09-11T09:41:32.119Z,21.37
2018-09-11T09:42:32.072Z,21.40
2018-09-11T09:43:32.081Z,21.63
2018-09-11T09:44:32.079Z,21.64
2018-09-11T09:45:32.090Z,21.85
2018-09-11T09:46:32.028Z,21.89
2018-09-11T09:47:32.013Z,21.98
2018-09-11T09:48:32.021Z,22.02
2018-09-11T09:49:32.016Z,21.98
2018-09-11T09:50:31.981Z,22.12
2018-09-11T09:51:31.982Z,22.21
2018-09-11T09:52:31.966Z,22.31
2018-09-11T09:53:31.988Z,22.44
2018-09-11T09:54:31.958Z,22.46
2018-09-11T09:55:31.923Z,22.46
2018-09-11T09:56:31.924Z,22.61
2018-09-11T09:57:31.902Z,22.66
2018-09-11T09:58:31.918Z,22.66
2018-09-11T09:59:31.933Z,22.70
2018-09-11T10:00:31.882Z,22.72
2018-09-11T10:01:31.859Z,22.75
2018-09-11T10:02:31.849Z,22.82
2018-09-11T10:03:31.842Z,22.75
2018-09-11T10:04:31.847Z,22.88
2018-09-11T10:05:31.821Z,22.74
2018-09-11T10:06:31.802Z,22.79
2018-09-11T10:07:31.797Z,22.76
2018-09-11T10:08:31.781Z,22.84
2018-09-11T10:09:31.793Z,22.81
2018-09-11T10:10:31.758Z,22.85
2018-09-11T10:11:31.750Z,23.00
2018-09-11T10:12:31.736Z,22.93
2018-09-11T10:13:31.727Z,22.99
2018-09-11T10:14:31.743Z,23.09
2018-09-11T10:15:31.720Z,23.14
2018-09-11T10:16:31.699Z,23.11
2018-09-11T10:17:31.700Z,23.11
2018-09-11T10:18:31.683Z,22.99
2018-09-11T10:19:31.687Z,23.14
2018-09-11T10:20:31.650Z,23.09
2018-09-11T10:21:31.642Z,23.12
2018-09-11T10:22:31.631Z,23.21
2018-09-11T10:23:31.638Z,23.25
2018-09-11T10:24:31.634Z,23.35
2018-09-11T10:25:31.595Z,23.26
2018-09-11T10:26:31.582Z,23.34
2018-09-11T10:27:31.629Z,23.42
2018-09-11T10:28:31.584Z,23.45
2018-09-11T10:29:31.584Z,23.53
2018-09-11T10:30:31.540Z,23.54
2018-09-11T10:31:31.528Z,23.53
2018-09-11T10:32:31.539Z,23.62
2018-09-11T10:33:31.508Z,23.52
2018-09-11T10:34:31.523Z,23.50
2018-09-11T10:35:31.491Z,23.59
2018-09-11T10:36:38.901Z,23.68
2018-09-11T10:37:31.523Z,23.69
2018-09-11T10:38:31.449Z,23.77
2018-09-11T10:39:31.538Z,23.72
2018-09-11T10:40:31.540Z,23.82
2018-09-11T10:41:31.553Z,23.96
2018-09-11T10:42:31.420Z,23.86
2018-09-11T10:43:31.417Z,23.99
2018-09-11T10:44:31.412Z,23.92
2018-09-11T10:45:31.376Z,23.94
2018-09-11T10:46:31.362Z,23.99
2018-09-11T10:47:31.359Z,23.96
2018-09-11T10:48:31.341Z,23.99
2018-09-11T10:49:31.350Z,24.06
2018-09-11T10:50:31.325Z,24.06
2018-09-11T10:51:31.309Z,24.06
2018-09-11T10:52:31.294Z,24.05
2018-09-11T10:53:31.302Z,24.04
2018-09-11T10:54:31.297Z,24.08
2018-09-11T10:55:31.261Z,24.23
2018-09-11T10:56:31.254Z,24.30
2018-09-11T10:57:31.239Z,24.36
2018-09-11T10:58:31.247Z,24.46
2018-09-11T10:59:31.253Z,24.53
2018-09-11T11:00:31.282Z,24.56
2018-09-11T11:01:31.982Z,24.67
2018-09-11T11:02:31.183Z,24.80
2018-09-11T11:03:31.177Z,24.67
2018-09-11T11:04:31.184Z,24.80
2018-09-11T11:05:31.170Z,24.83
2018-09-11T11:06:31.148Z,24.83
2018-09-11T11:07:31.131Z,24.82
2018-09-11T11:08:31.134Z,24.82
2018-09-11T11:09:31.167Z,24.89
2018-09-11T11:10:31.093Z,24.94
2018-09-11T11:11:31.086Z,25.09
2018-09-11T11:12:31.078Z,25.07
2018-09-11T11:13:31.060Z,25.14
2018-09-11T11:14:31.073Z,25.26
2018-09-11T11:15:31.047Z,25.23
2018-09-11T11:16:31.027Z,25.23
2018-09-11T11:17:31.017Z,25.35
2018-09-11T11:18:31.008Z,25.38
2018-09-11T11:19:31.021Z,25.41
2018-09-11T11:20:30.984Z,25.51
2018-09-11T11:21:30.971Z,25.46
2018-09-11T11:22:31.042Z,25.64
2018-09-11T11:23:31.022Z,25.64
2018-09-11T11:24:30.952Z,25.83
2018-09-11T11:25:30.953Z,25.98
2018-09-11T11:26:30.927Z,26.09
2018-09-11T11:27:30.909Z,26.38
2018-09-11T11:28:30.896Z,26.66
2018-09-11T11:29:30.896Z,26.84
2018-09-11T11:30:30.922Z,27.11
2018-09-11T11:31:30.862Z,27.24
2018-09-11T11:32:30.872Z,27.38
2018-09-11T11:33:30.866Z,27.66
2018-09-11T11:34:30.832Z,27.98
2018-09-11T11:35:30.844Z,28.36
2018-09-11T11:36:30.874Z,28.80
2018-09-11T11:37:30.810Z,29.20
2018-09-11T11:38:30.791Z,29.67
2018-09-11T11:39:30.811Z,30.26
2018-09-11T11:40:30.800Z,30.64
2018-09-11T11:41:30.765Z,31.23
2018-09-11T11:42:30.790Z,31.99
2018-09-11T11:43:30.741Z,32.63
2018-09-11T11:44:30.760Z,32.91
2018-09-11T11:45:30.724Z,32.90
2018-09-11T11:46:30.704Z,33.11
2018-09-11T11:47:30.694Z,33.50
2018-09-11T11:48:30.690Z,33.75
2018-09-11T11:49:30.672Z,33.99
2018-09-11T11:50:30.696Z,34.23
2018-09-11T11:51:30.656Z,34.46
2018-09-11T11:52:30.645Z,34.65
2018-09-11T11:53:30.633Z,34.86
2018-09-11T11:54:30.619Z,34.14
2018-09-11T11:55:30.723Z,34.46
2018-09-11T11:56:30.602Z,34.43
2018-09-11T11:57:30.604Z,34.91
2018-09-11T11:58:30.581Z,35.02
2018-09-11T11:59:30.627Z,34.67
2018-09-11T12:00:30.677Z,34.67
2018-09-11T12:01:30.647Z,34.36
2018-09-11T12:02:30.576Z,34.12
2018-09-11T12:03:30.565Z,33.94
2018-09-11T12:04:30.521Z,33.94
2018-09-11T12:05:30.663Z,34.65
2018-09-11T12:06:30.519Z,35.06
2018-09-11T12:07:30.545Z,35.44
2018-09-11T12:08:30.490Z,35.00
2018-09-11T12:09:30.474Z,34.99
2018-09-11T12:10:30.527Z,35.27
2018-09-11T12:11:30.518Z,35.42
2018-09-11T12:12:30.442Z,35.37
2018-09-11T12:13:30.533Z,35.55
2018-09-11T12:14:30.507Z,35.65
2018-09-11T12:15:30.459Z,35.92
2018-09-11T12:16:30.461Z,36.08
2018-09-11T12:17:30.398Z,36.28
2018-09-11T12:18:30.378Z,36.12
2018-09-11T12:19:30.520Z,35.98
2018-09-11T12:20:31.087Z,36.18
2018-09-11T12:21:30.383Z,36.67
2018-09-11T12:22:30.352Z,36.91
2018-09-11T12:23:37.383Z,36.82
2018-09-11T12:24:30.387Z,36.71
2018-09-11T12:25:30.410Z,36.43
2018-09-11T12:26:30.298Z,36.46
2018-09-11T12:27:30.559Z,36.23
2018-09-11T12:28:30.338Z,35.81
2018-09-11T12:29:30.315Z,35.69
2018-09-11T12:30:30.340Z,36.08
2018-09-11T12:31:32.053Z,35.50
2018-09-11T12:32:37.407Z,35.25
2018-09-11T12:33:30.251Z,35.77
2018-09-11T12:34:30.285Z,35.58
2018-09-11T12:35:30.245Z,35.78
2018-09-11T12:36:30.200Z,35.85
2018-09-11T12:37:30.189Z,35.25
2018-09-11T12:38:30.217Z,35.54
2018-09-11T12:39:46.011Z,35.93
2018-09-11T12:40:30.432Z,36.08
2018-09-11T12:41:30.806Z,36.41
2018-09-11T12:42:30.143Z,36.74
2018-09-11T12:43:30.221Z,37.20
2018-09-11T12:44:30.214Z,37.58
2018-09-11T12:45:30.311Z,37.96
2018-09-11T12:46:41.818Z,37.45
2018-09-11T12:47:31.476Z,37.80
2018-09-11T12:48:30.181Z,37.81
2018-09-11T12:49:30.066Z,37.42
2018-09-11T12:50:31.604Z,37.58
2018-09-11T12:51:32.599Z,37.63
2018-09-11T12:52:30.129Z,38.00